createdAt,value
2023-03-18T00:00:37.728Z,88.80
2023-03-18T00:03:04.601Z,88.80
2023-03-18T00:05:32.963Z,89.00
2023-03-18T00:07:59.733Z,89.20
2023-03-18T00:10:26.506Z,89.30
2023-03-18T00:12:53.234Z,89.00
2023-03-18T00:15:20.329Z,89.00
2023-03-18T00:17:47.599Z,88.90
2023-03-18T00:20:16.158Z,89.90
2023-03-18T00:22:44.907Z,89.10
2023-03-18T00:25:14.466Z,88.60
2023-03-18T00:27:41.218Z,88.30
2023-03-18T00:30:09.172Z,88.30
2023-03-18T00:32:35.983Z,88.10
2023-03-18T00:35:03.232Z,88.40
2023-03-18T00:37:30.546Z,89.30
2023-03-18T00:40:00.205Z,89.00
2023-03-18T00:42:27.082Z,88.50
2023-03-18T00:44:53.809Z,88.20
2023-03-18T00:47:20.561Z,88.30
2023-03-18T00:49:47.517Z,88.20
2023-03-18T00:52:14.245Z,89.10
2023-03-18T00:54:40.991Z,88.80
2023-03-18T00:57:09.194Z,88.60
2023-03-18T00:59:35.993Z,88.50
2023-03-18T01:02:02.742Z,88.30
2023-03-18T01:04:29.540Z,88.10
2023-03-18T01:06:56.533Z,88.10
2023-03-18T01:09:23.317Z,87.80
2023-03-18T01:11:50.228Z,88.60
2023-03-18T01:14:18.360Z,87.50
2023-03-18T01:16:45.298Z,87.30
2023-03-18T01:19:12.456Z,87.40
2023-03-18T01:21:40.462Z,87.50
2023-03-18T01:24:07.849Z,88.30
2023-03-18T01:26:34.590Z,87.30
2023-03-18T01:29:01.357Z,87.10
2023-03-18T01:31:29.665Z,87.90
2023-03-18T01:33:56.386Z,88.50
2023-03-18T01:36:23.146Z,89.20
2023-03-18T01:38:49.887Z,89.30
2023-03-18T01:41:16.601Z,89.40
2023-03-18T01:43:43.556Z,89.10
2023-03-18T01:46:33.616Z,88.70
2023-03-18T01:49:01.620Z,88.80
2023-03-18T01:51:28.598Z,88.60
2023-03-18T01:53:58.961Z,88.00
2023-03-18T01:56:25.862Z,88.20
2023-03-18T01:58:55.195Z,87.30
2023-03-18T02:01:25.754Z,87.50
2023-03-18T02:03:54.752Z,87.30
2023-03-18T02:06:22.104Z,87.00
2023-03-18T02:08:49.606Z,86.80
2023-03-18T02:11:16.840Z,87.50
2023-03-18T02:13:45.971Z,87.90
2023-03-18T02:16:16.252Z,88.50
2023-03-18T02:18:49.614Z,88.90
2023-03-18T02:21:35.305Z,89.40
2023-03-18T02:24:09.412Z,88.60
2023-03-18T02:26:39.501Z,88.40
2023-03-18T02:29:09.174Z,87.90
2023-03-18T02:31:36.862Z,87.30
2023-03-18T02:34:06.927Z,87.40
2023-03-18T02:36:35.409Z,87.40
2023-03-18T02:39:02.420Z,87.10
2023-03-18T02:41:32.311Z,87.40
2023-03-18T02:43:59.487Z,87.40
2023-03-18T02:46:35.945Z,87.10
2023-03-18T02:49:04.793Z,87.80
2023-03-18T02:51:31.686Z,88.00
2023-03-18T02:54:02.884Z,88.40
2023-03-18T02:56:29.816Z,88.20
2023-03-18T02:58:56.659Z,88.10
2023-03-18T03:01:23.637Z,87.90
2023-03-18T03:03:51.811Z,88.40
2023-03-18T03:06:18.595Z,88.20
2023-03-18T03:08:45.757Z,88.70
2023-03-18T03:11:12.656Z,88.80
2023-03-18T03:13:40.991Z,88.70
2023-03-18T03:16:08.891Z,88.60
2023-03-18T03:18:35.641Z,88.60
2023-03-18T03:21:04.440Z,88.80
2023-03-18T03:23:31.328Z,88.40
2023-03-18T03:25:58.072Z,88.40
2023-03-18T03:28:24.887Z,88.00
2023-03-18T03:30:51.909Z,88.00
2023-03-18T03:33:18.790Z,88.60
2023-03-18T03:35:45.556Z,88.30
2023-03-18T03:38:13.775Z,88.10
2023-03-18T03:40:40.758Z,88.00
2023-03-18T03:43:07.675Z,89.50
2023-03-18T03:45:34.378Z,88.90
2023-03-18T03:48:01.307Z,89.90
2023-03-18T03:50:28.362Z,89.70
2023-03-18T03:52:55.146Z,88.80
2023-03-18T03:55:23.272Z,88.50
2023-03-18T03:57:50.186Z,88.10
2023-03-18T04:00:19.727Z,88.00
2023-03-18T04:02:47.567Z,88.30
2023-03-18T04:05:15.995Z,88.30
2023-03-18T04:07:43.064Z,88.00
2023-03-18T04:10:11.460Z,88.10
2023-03-18T04:12:39.720Z,88.20
2023-03-18T04:15:08.213Z,89.10
2023-03-18T04:17:35.276Z,89.20
2023-03-18T04:20:02.067Z,89.00
2023-03-18T04:22:28.787Z,89.40
2023-03-18T04:24:55.456Z,89.70
2023-03-18T04:27:22.338Z,90.10
2023-03-18T04:29:50.515Z,89.90
2023-03-18T04:32:17.269Z,89.70
2023-03-18T04:34:43.965Z,89.60
2023-03-18T04:37:11.033Z,89.50
2023-03-18T04:39:37.812Z,88.90
2023-03-18T04:42:04.989Z,88.80
2023-03-18T04:44:31.666Z,88.80
2023-03-18T04:46:59.763Z,90.00
2023-03-18T04:49:26.592Z,89.40
2023-03-18T04:51:53.292Z,89.60
2023-03-18T04:54:19.984Z,89.00
2023-03-18T04:56:46.913Z,90.10
2023-03-18T04:59:14.056Z,90.00
2023-03-18T05:01:40.767Z,90.60
2023-03-18T05:04:09.036Z,90.90
2023-03-18T05:06:35.813Z,90.50
2023-03-18T05:09:03.110Z,90.40
2023-03-18T05:11:29.782Z,90.60
2023-03-18T05:13:56.499Z,90.00
2023-03-18T05:16:23.293Z,90.40
2023-03-18T05:18:50.579Z,89.70
2023-03-18T05:21:18.778Z,90.30
2023-03-18T05:23:45.545Z,90.10
2023-03-18T05:26:12.265Z,90.20
2023-03-18T05:28:39.104Z,90.00
2023-03-18T05:31:05.904Z,90.00
2023-03-18T05:33:32.718Z,89.70
2023-03-18T05:35:59.525Z,89.30
2023-03-18T05:38:27.733Z,89.90
2023-03-18T05:40:54.465Z,90.40
2023-03-18T05:43:21.187Z,90.60
2023-03-18T05:45:48.188Z,90.40
2023-03-18T05:48:14.931Z,90.70
2023-03-18T05:50:42.567Z,91.40
2023-03-18T05:53:10.235Z,91.50
2023-03-18T05:55:39.427Z,91.10
2023-03-18T05:58:06.950Z,90.90
2023-03-18T06:00:34.062Z,91.20
2023-03-18T06:03:01.630Z,90.70
2023-03-18T06:05:29.712Z,90.40
2023-03-18T06:07:56.902Z,90.70
2023-03-18T06:10:24.263Z,91.00
2023-03-18T06:12:52.902Z,90.80
2023-03-18T06:15:19.822Z,90.90
2023-03-18T06:17:46.574Z,91.20
2023-03-18T06:20:14.391Z,90.90
2023-03-18T06:22:41.214Z,91.30
2023-03-18T06:25:08.587Z,91.10
2023-03-18T06:27:35.723Z,91.70
2023-03-18T06:30:04.874Z,92.10
2023-03-18T06:32:32.501Z,91.80
2023-03-18T06:34:59.232Z,92.50
2023-03-18T06:37:26.040Z,92.60
2023-03-18T06:39:52.922Z,93.00
2023-03-18T06:42:19.652Z,92.60
2023-03-18T06:44:46.382Z,93.30
2023-03-18T06:47:14.451Z,93.40
2023-03-18T06:49:41.149Z,93.70
2023-03-18T06:52:07.913Z,94.30
2023-03-18T06:54:34.652Z,93.80
2023-03-18T06:57:01.346Z,94.00
2023-03-18T06:59:28.045Z,94.20
2023-03-18T07:01:54.835Z,94.20
2023-03-18T07:04:23.037Z,94.90
2023-03-18T07:06:49.891Z,93.90
2023-03-18T07:09:16.589Z,94.60
2023-03-18T07:11:43.367Z,95.30
2023-03-18T07:14:10.066Z,95.30
2023-03-18T07:16:36.779Z,95.20
2023-03-18T07:19:03.589Z,95.30
2023-03-18T07:21:31.716Z,95.50
2023-03-18T07:23:58.445Z,92.90
2023-03-18T07:26:25.436Z,94.40
2023-03-18T07:28:52.178Z,91.80
2023-03-18T07:31:19.064Z,92.70
2023-03-18T07:33:45.777Z,94.20
2023-03-18T07:36:12.517Z,92.70
2023-03-18T07:38:40.666Z,92.40
2023-03-18T07:41:07.557Z,91.40
2023-03-18T07:43:34.346Z,93.40
2023-03-18T07:46:01.109Z,91.40
2023-03-18T07:48:27.943Z,90.50
2023-03-18T07:50:54.688Z,90.20
2023-03-18T07:53:21.468Z,89.30
2023-03-18T07:55:49.539Z,88.00
2023-03-18T07:58:16.273Z,87.90
2023-03-18T08:00:43.131Z,87.40
2023-03-18T08:03:11.306Z,87.20
2023-03-18T08:05:38.246Z,86.90
2023-03-18T08:08:05.283Z,86.50
2023-03-18T08:10:31.974Z,86.50
2023-03-18T08:13:00.086Z,86.30
2023-03-18T08:15:26.929Z,86.30
2023-03-18T08:17:53.622Z,86.00
2023-03-18T08:20:21.976Z,85.90
2023-03-18T08:22:48.700Z,85.90
2023-03-18T08:25:16.037Z,86.00
2023-03-18T08:27:42.850Z,86.00
2023-03-18T08:30:12.278Z,86.10
2023-03-18T08:32:40.311Z,86.20
2023-03-18T08:35:07.780Z,86.60
2023-03-18T08:37:34.507Z,86.90
2023-03-18T08:40:01.194Z,87.00
2023-03-18T08:42:28.131Z,87.50
2023-03-18T08:44:54.860Z,87.80
2023-03-18T08:47:23.037Z,88.10
2023-03-18T08:49:51.372Z,88.40
2023-03-18T08:52:18.611Z,88.60
2023-03-18T08:54:45.356Z,89.10
2023-03-18T08:57:12.472Z,89.40
2023-03-18T08:59:39.207Z,90.00
2023-03-18T09:02:05.935Z,90.10
2023-03-18T09:04:34.006Z,90.10
2023-03-18T09:07:01.066Z,90.40
2023-03-18T09:09:40.773Z,90.60
2023-03-18T09:12:09.959Z,90.80
2023-03-18T09:14:36.667Z,91.00
2023-03-18T09:17:03.550Z,91.20
2023-03-18T09:19:30.290Z,91.20
2023-03-18T09:21:58.434Z,91.60
2023-03-18T09:24:25.296Z,91.70
2023-03-18T09:26:52.169Z,92.20
2023-03-18T09:29:18.954Z,92.10
2023-03-18T09:31:45.769Z,92.40
2023-03-18T09:34:12.520Z,92.30
2023-03-18T09:36:39.347Z,92.50
2023-03-18T09:39:07.559Z,92.60
2023-03-18T09:41:46.709Z,92.90
2023-03-18T09:44:21.471Z,93.20
2023-03-18T09:47:02.222Z,93.40
2023-03-18T09:49:48.485Z,93.60
2023-03-18T09:52:26.822Z,93.90
2023-03-18T09:54:59.733Z,94.20
2023-03-18T09:57:30.282Z,94.30
2023-03-18T10:00:04.511Z,94.70
2023-03-18T10:02:35.672Z,94.70
2023-03-18T10:05:05.958Z,94.70
2023-03-18T10:07:40.147Z,95.00
2023-03-18T10:10:09.228Z,95.40
2023-03-18T10:12:39.234Z,95.40
2023-03-18T10:15:19.042Z,95.80
2023-03-18T10:17:50.879Z,95.60
2023-03-18T10:20:23.946Z,95.90
2023-03-18T10:23:00.103Z,96.10
2023-03-18T10:25:35.954Z,96.70
2023-03-18T10:28:39.388Z,96.80
2023-03-18T10:31:18.204Z,97.00
2023-03-18T10:33:50.371Z,97.20
2023-03-18T10:36:19.765Z,97.60
2023-03-18T10:38:49.490Z,98.00
2023-03-18T10:41:22.693Z,97.90
2023-03-18T10:43:53.076Z,95.90
2023-03-18T10:46:21.394Z,95.90
2023-03-18T10:48:52.844Z,96.40
2023-03-18T10:51:26.388Z,97.00
2023-03-18T10:54:02.285Z,97.50
2023-03-18T10:56:29.254Z,97.70
2023-03-18T10:58:55.951Z,97.90
2023-03-18T11:01:24.560Z,98.20
2023-03-18T11:03:53.964Z,98.00
2023-03-18T11:06:32.931Z,97.80
2023-03-18T11:09:06.895Z,97.70
2023-03-18T11:11:35.189Z,98.60
2023-03-18T11:14:03.840Z,99.00
2023-03-18T11:16:35.639Z,99.10
2023-03-18T11:19:22.089Z,99.20
2023-03-18T11:21:59.246Z,99.30
2023-03-18T11:24:28.207Z,99.40
2023-03-18T11:26:56.621Z,99.90
2023-03-18T11:29:26.984Z,99.70
2023-03-18T11:31:55.681Z,99.60
2023-03-18T11:34:22.353Z,99.90
2023-03-18T11:36:57.889Z,99.90
2023-03-18T11:39:25.870Z,99.90
2023-03-18T11:41:54.393Z,99.90
2023-03-18T11:44:28.172Z,99.90
2023-03-18T11:47:03.205Z,99.90
2023-03-18T11:49:30.544Z,99.90
2023-03-18T11:52:09.464Z,99.90
2023-03-18T11:55:01.786Z,99.90
2023-03-18T11:57:40.367Z,99.90
2023-03-18T12:00:21.327Z,99.90
2023-03-18T12:03:24.098Z,99.90
2023-03-18T12:06:00.329Z,99.90
2023-03-18T12:08:38.761Z,99.90
2023-03-18T12:11:11.758Z,99.90
2023-03-18T12:13:51.896Z,99.90
2023-03-18T12:16:29.867Z,99.90
2023-03-18T12:19:10.322Z,99.90
2023-03-18T12:21:49.673Z,99.90
2023-03-18T12:24:39.413Z,99.90
2023-03-18T12:27:15.403Z,99.90
2023-03-18T12:29:58.165Z,99.90
2023-03-18T12:32:28.001Z,99.90
2023-03-18T12:35:10.664Z,99.90
2023-03-18T12:37:45.849Z,99.90
2023-03-18T12:40:31.034Z,99.90
2023-03-18T12:43:14.092Z,99.90
2023-03-18T12:45:45.217Z,99.90
2023-03-18T12:48:17.096Z,99.90
2023-03-18T12:50:50.441Z,99.90
2023-03-18T12:53:22.358Z,99.90
2023-03-18T12:55:53.397Z,99.90
2023-03-18T12:58:24.212Z,99.90
2023-03-18T13:00:57.661Z,99.90
2023-03-18T13:03:31.970Z,99.90
2023-03-18T13:06:03.604Z,99.90
2023-03-18T13:08:52.134Z,99.90
2023-03-18T13:11:32.995Z,99.90
2023-03-18T13:14:05.787Z,99.90
2023-03-18T13:16:35.412Z,99.90
2023-03-18T13:19:04.531Z,99.90
2023-03-18T13:21:34.827Z,99.90
2023-03-18T13:24:17.286Z,99.90
2023-03-18T13:27:01.028Z,99.90
2023-03-18T13:29:36.554Z,99.90
2023-03-18T13:32:21.843Z,99.90
2023-03-18T13:35:03.768Z,99.90
2023-03-18T13:38:08.598Z,99.90
2023-03-18T13:40:54.972Z,99.90
2023-03-18T13:43:23.888Z,99.90
2023-03-18T13:45:53.490Z,99.90
2023-03-18T13:48:28.072Z,99.90
2023-03-18T13:50:57.053Z,99.90
2023-03-18T13:53:26.643Z,99.90
2023-03-18T13:56:01.263Z,99.90
2023-03-18T13:58:33.006Z,99.90
2023-03-18T14:01:30.244Z,99.90
2023-03-18T14:04:20.856Z,99.90
2023-03-18T14:06:53.761Z,99.90
2023-03-18T14:09:46.636Z,99.90
2023-03-18T14:12:23.076Z,99.90
2023-03-18T14:15:02.560Z,99.90
2023-03-18T14:17:52.604Z,99.90
2023-03-18T14:20:37.983Z,99.90
2023-03-18T14:23:34.070Z,99.90
2023-03-18T14:26:03.495Z,99.90
2023-03-18T14:28:40.048Z,99.90
2023-03-18T14:31:29.913Z,99.90
2023-03-18T14:34:04.311Z,99.90
2023-03-18T14:37:05.182Z,99.90
2023-03-18T14:39:35.959Z,99.90
2023-03-18T14:42:11.256Z,99.90
2023-03-18T14:44:44.867Z,99.90
2023-03-18T14:47:35.552Z,99.90
2023-03-18T14:50:13.233Z,99.90
2023-03-18T14:52:44.485Z,99.90
2023-03-18T14:55:18.066Z,99.90
2023-03-18T14:57:45.163Z,99.90
2023-03-18T15:00:14.738Z,99.90
2023-03-18T15:02:43.047Z,99.90
2023-03-18T15:05:12.777Z,99.90
2023-03-18T15:07:42.715Z,99.90
2023-03-18T15:10:12.660Z,99.90
2023-03-18T15:12:39.997Z,99.90
2023-03-18T15:15:12.570Z,99.90
2023-03-18T15:17:39.954Z,99.90
2023-03-18T15:20:12.058Z,99.90
2023-03-18T15:22:39.197Z,99.90
2023-03-18T15:25:11.088Z,99.90
2023-03-18T15:27:37.990Z,99.90
2023-03-18T15:30:07.084Z,99.90
2023-03-18T15:32:46.925Z,99.90
2023-03-18T15:35:17.188Z,99.90
2023-03-18T15:37:45.316Z,99.90
2023-03-18T15:40:26.480Z,99.90
2023-03-18T15:42:56.225Z,99.90
2023-03-18T15:45:26.452Z,99.90
2023-03-18T15:47:53.330Z,99.90
2023-03-18T15:50:27.036Z,99.90
2023-03-18T15:53:03.216Z,99.90
2023-03-18T15:55:33.564Z,99.90
2023-03-18T15:58:03.507Z,99.90
2023-03-18T16:00:32.452Z,99.90
2023-03-18T16:02:59.211Z,99.90
2023-03-18T16:05:27.539Z,99.90
2023-03-18T16:07:55.106Z,99.90
2023-03-18T16:10:23.532Z,99.90
2023-03-18T16:12:54.723Z,99.90
2023-03-18T16:15:24.708Z,99.90
2023-03-18T16:17:53.260Z,99.90
2023-03-18T16:20:22.015Z,99.90
2023-03-18T16:22:48.760Z,99.90
2023-03-18T16:25:15.879Z,99.90
2023-03-18T16:27:45.021Z,99.90
2023-03-18T16:30:19.566Z,99.90
2023-03-18T16:32:46.660Z,99.90
2023-03-18T16:35:14.607Z,99.90
2023-03-18T16:37:42.702Z,99.90
2023-03-18T16:40:15.401Z,99.90
2023-03-18T16:42:42.297Z,99.90
2023-03-18T16:45:13.500Z,99.90
2023-03-18T16:47:43.039Z,99.90
2023-03-18T16:50:15.449Z,99.90
2023-03-18T16:52:42.181Z,99.90
2023-03-18T16:55:12.315Z,99.90
2023-03-18T16:57:39.238Z,99.90
2023-03-18T17:00:14.567Z,99.90
2023-03-18T17:02:42.718Z,99.90
2023-03-18T17:05:14.420Z,99.90
2023-03-18T17:07:41.215Z,99.90
2023-03-18T17:10:09.138Z,99.90
2023-03-18T17:12:36.451Z,99.90
2023-03-18T17:15:03.862Z,99.90
2023-03-18T17:17:33.376Z,99.90
2023-03-18T17:20:01.995Z,99.90
2023-03-18T17:22:30.193Z,99.90
2023-03-18T17:24:57.199Z,99.90
2023-03-18T17:27:26.502Z,99.90
2023-03-18T17:29:53.313Z,99.90
2023-03-18T17:32:20.014Z,99.90
2023-03-18T17:34:48.733Z,99.90
2023-03-18T17:37:16.910Z,99.90
2023-03-18T17:39:43.694Z,99.90
2023-03-18T17:42:25.001Z,99.90
2023-03-18T17:44:52.236Z,99.90
2023-03-18T17:47:19.091Z,99.90
2023-03-18T17:49:45.790Z,99.90
2023-03-18T17:52:16.228Z,99.90
2023-03-18T17:54:44.288Z,99.90
2023-03-18T17:57:14.031Z,99.90
2023-03-18T17:59:41.250Z,99.90
2023-03-18T18:02:11.823Z,99.90
2023-03-18T18:04:38.651Z,99.90
2023-03-18T18:07:15.227Z,99.90
2023-03-18T18:09:42.054Z,99.90
2023-03-18T18:12:15.685Z,99.20
2023-03-18T18:14:42.415Z,98.00
2023-03-18T18:17:12.464Z,96.10
2023-03-18T18:19:39.345Z,96.10
2023-03-18T18:22:06.256Z,94.00
2023-03-18T18:24:33.874Z,93.60
2023-03-18T18:27:00.565Z,92.70
2023-03-18T18:29:28.689Z,92.40
2023-03-18T18:31:55.504Z,91.90
2023-03-18T18:34:22.180Z,91.20
2023-03-18T18:36:48.999Z,90.90
2023-03-18T18:39:15.862Z,90.70
2023-03-18T18:41:42.728Z,91.10
2023-03-18T18:44:09.567Z,90.50
2023-03-18T18:46:38.038Z,90.80
2023-03-18T18:49:04.853Z,90.60
2023-03-18T18:51:31.727Z,90.10
2023-03-18T18:53:58.540Z,90.10
2023-03-18T18:56:32.668Z,90.10
2023-03-18T18:58:59.568Z,89.90
2023-03-18T19:01:27.115Z,90.00
2023-03-18T19:03:55.318Z,90.00
2023-03-18T19:06:26.402Z,90.00
2023-03-18T19:08:54.447Z,89.90
2023-03-18T19:11:21.229Z,89.60
2023-03-18T19:13:48.016Z,89.10
2023-03-18T19:16:22.686Z,89.40
2023-03-18T19:18:51.703Z,89.30
2023-03-18T19:21:21.886Z,88.20
2023-03-18T19:23:49.756Z,89.50
2023-03-18T19:26:18.435Z,89.30
2023-03-18T19:28:57.418Z,89.00
2023-03-18T19:31:30.493Z,88.90
2023-03-18T19:33:59.532Z,88.60
2023-03-18T19:36:31.869Z,88.00
2023-03-18T19:39:01.257Z,87.20
2023-03-18T19:41:30.552Z,87.50
2023-03-18T19:44:01.317Z,87.80
2023-03-18T19:46:32.947Z,87.50
2023-03-18T19:48:59.649Z,87.50
2023-03-18T19:51:27.729Z,87.70
2023-03-18T19:53:54.576Z,87.50
2023-03-18T19:56:25.670Z,87.30
2023-03-18T19:58:52.757Z,87.10
2023-03-18T20:01:20.006Z,87.70
2023-03-18T20:03:46.745Z,87.90
2023-03-18T20:06:13.488Z,88.40
2023-03-18T20:08:41.565Z,88.00
2023-03-18T20:11:12.428Z,87.50
2023-03-18T20:13:39.143Z,87.80
2023-03-18T20:16:06.500Z,87.10
2023-03-18T20:18:33.232Z,87.10
2023-03-18T20:20:59.929Z,87.00
2023-03-18T20:23:27.008Z,86.80
2023-03-18T20:25:55.067Z,86.70
2023-03-18T20:28:24.260Z,87.10
2023-03-18T20:30:52.883Z,87.30
2023-03-18T20:33:20.063Z,87.20
2023-03-18T20:35:49.467Z,87.50
2023-03-18T20:38:24.193Z,87.40
2023-03-18T20:40:50.909Z,87.60
2023-03-18T20:43:20.915Z,86.90
2023-03-18T20:45:48.007Z,86.40
2023-03-18T20:48:14.777Z,87.00
2023-03-18T20:50:41.536Z,86.90
2023-03-18T20:53:15.588Z,86.80
2023-03-18T20:55:42.418Z,86.50
2023-03-18T20:58:14.259Z,86.60
2023-03-18T21:00:42.810Z,86.90
2023-03-18T21:03:21.565Z,86.40
2023-03-18T21:05:48.350Z,87.10
2023-03-18T21:08:15.067Z,86.70
2023-03-18T21:10:41.891Z,87.10
2023-03-18T21:13:17.320Z,87.10
2023-03-18T21:15:45.367Z,86.70
2023-03-18T21:18:13.906Z,86.60
2023-03-18T21:20:40.736Z,86.80
2023-03-18T21:23:17.382Z,86.40
2023-03-18T21:25:44.125Z,86.60
2023-03-18T21:28:12.727Z,86.70
2023-03-18T21:30:39.457Z,87.00
2023-03-18T21:33:18.674Z,87.10
2023-03-18T21:35:45.440Z,87.40
2023-03-18T21:38:12.295Z,87.20
2023-03-18T21:40:39.086Z,87.30
2023-03-18T21:43:22.772Z,87.00
2023-03-18T21:45:49.480Z,87.00
2023-03-18T21:48:17.567Z,87.20
2023-03-18T21:50:44.458Z,87.00
2023-03-18T21:53:12.404Z,86.60
2023-03-18T21:55:39.120Z,86.10
2023-03-18T21:58:05.859Z,86.30
2023-03-18T22:00:32.846Z,86.30
2023-03-18T22:02:59.572Z,86.50
2023-03-18T22:05:27.656Z,86.20
2023-03-18T22:07:54.500Z,86.30
2023-03-18T22:10:23.082Z,86.90
2023-03-18T22:12:50.475Z,86.90
2023-03-18T22:15:36.597Z,86.70
2023-03-18T22:18:03.842Z,86.90
2023-03-18T22:20:32.248Z,86.90
2023-03-18T22:22:58.956Z,86.90
2023-03-18T22:25:28.655Z,87.40
2023-03-18T22:27:55.510Z,87.40
2023-03-18T22:30:22.348Z,87.40
2023-03-18T22:32:49.268Z,87.50
2023-03-18T22:35:18.246Z,87.50
2023-03-18T22:37:46.923Z,87.40
2023-03-18T22:40:17.673Z,87.50
2023-03-18T22:42:45.451Z,88.40
2023-03-18T22:45:20.534Z,89.50
2023-03-18T22:47:47.300Z,89.10
2023-03-18T22:50:14.074Z,87.60
2023-03-18T22:52:41.179Z,87.10
2023-03-18T22:55:17.051Z,87.20
2023-03-18T22:57:43.763Z,87.20
2023-03-18T23:00:20.675Z,88.10
2023-03-18T23:02:48.881Z,88.70
2023-03-18T23:05:17.695Z,88.80
2023-03-18T23:07:44.398Z,88.60
2023-03-18T23:10:13.784Z,88.00
2023-03-18T23:12:40.566Z,87.90
2023-03-18T23:15:09.085Z,88.00
2023-03-18T23:17:35.807Z,88.20
2023-03-18T23:20:02.673Z,88.00
2023-03-18T23:22:32.002Z,88.30
2023-03-18T23:24:58.949Z,88.30
2023-03-18T23:27:28.180Z,88.30
2023-03-18T23:29:55.642Z,88.30
2023-03-18T23:32:23.594Z,88.10
2023-03-18T23:34:51.743Z,88.40
2023-03-18T23:37:18.471Z,88.50
2023-03-18T23:39:45.202Z,89.50
2023-03-18T23:42:13.236Z,90.10
2023-03-18T23:44:41.623Z,89.60
2023-03-18T23:47:10.218Z,89.90
2023-03-18T23:49:36.962Z,89.50
2023-03-18T23:52:06.500Z,89.30
2023-03-18T23:54:33.605Z,88.90
2023-03-18T23:57:00.753Z,88.90
2023-03-18T23:59:28.171Z,89.10
